sensor_id;sensor_type;location;lat;lon;timestamp;P1;durP1;ratioP1;P2;durP2;ratioP2
59105;SDS011;44891;50.204;8.132;2022-07-17T00:01:54;3.30;;;2.83;;
59105;SDS011;44891;50.204;8.132;2022-07-17T00:05:56;4.18;;;2.95;;
59105;SDS011;44891;50.204;8.132;2022-07-17T00:09:58;3.90;;;2.80;;
59105;SDS011;44891;50.204;8.132;2022-07-17T00:14:02;3.70;;;3.00;;
59105;SDS011;44891;50.204;8.132;2022-07-17T00:18:04;4.00;;;3.00;;
59105;SDS011;44891;50.204;8.132;2022-07-17T00:22:07;4.75;;;2.97;;
59105;SDS011;44891;50.204;8.132;2022-07-17T00:26:10;4.28;;;2.65;;
59105;SDS011;44891;50.204;8.132;2022-07-17T00:30:14;4.82;;;2.80;;
59105;SDS011;44891;50.204;8.132;2022-07-17T00:34:16;5.45;;;3.15;;
59105;SDS011;44891;50.204;8.132;2022-07-17T00:38:19;4.45;;;2.92;;
59105;SDS011;44891;50.204;8.132;2022-07-17T00:42:21;4.32;;;2.90;;
59105;SDS011;44891;50.204;8.132;2022-07-17T00:46:24;5.25;;;3.13;;
59105;SDS011;44891;50.204;8.132;2022-07-17T00:50:27;5.25;;;3.25;;
59105;SDS011;44891;50.204;8.132;2022-07-17T00:54:31;4.75;;;2.97;;
59105;SDS011;44891;50.204;8.132;2022-07-17T00:58:36;5.22;;;2.95;;
59105;SDS011;44891;50.204;8.132;2022-07-17T01:02:43;5.38;;;2.83;;
59105;SDS011;44891;50.204;8.132;2022-07-17T01:06:46;3.95;;;2.80;;
59105;SDS011;44891;50.204;8.132;2022-07-17T01:10:49;3.88;;;2.72;;
59105;SDS011;44891;50.204;8.132;2022-07-17T01:14:51;5.45;;;3.30;;
59105;SDS011;44891;50.204;8.132;2022-07-17T01:18:55;3.58;;;2.78;;
59105;SDS011;44891;50.204;8.132;2022-07-17T01:22:59;5.82;;;3.10;;
59105;SDS011;44891;50.204;8.132;2022-07-17T01:27:02;3.17;;;2.83;;
59105;SDS011;44891;50.204;8.132;2022-07-17T01:31:04;4.00;;;2.85;;
59105;SDS011;44891;50.204;8.132;2022-07-17T01:35:06;4.15;;;3.00;;
59105;SDS011;44891;50.204;8.132;2022-07-17T01:39:11;2.80;;;2.60;;
59105;SDS011;44891;50.204;8.132;2022-07-17T01:43:13;3.00;;;2.67;;
59105;SDS011;44891;50.204;8.132;2022-07-17T01:47:15;3.33;;;2.95;;
59105;SDS011;44891;50.204;8.132;2022-07-17T01:51:18;4.95;;;3.22;;
59105;SDS011;44891;50.204;8.132;2022-07-17T01:55:21;4.20;;;2.83;;
59105;SDS011;44891;50.204;8.132;2022-07-17T01:59:23;5.95;;;3.10;;
59105;SDS011;44891;50.204;8.132;2022-07-17T02:03:26;3.08;;;2.40;;
59105;SDS011;44891;50.204;8.132;2022-07-17T02:11:31;5.72;;;2.97;;
59105;SDS011;44891;50.204;8.132;2022-07-17T02:15:33;3.13;;;2.80;;
59105;SDS011;44891;50.204;8.132;2022-07-17T02:19:35;3.40;;;2.45;;
59105;SDS011;44891;50.204;8.132;2022-07-17T02:23:37;4.60;;;2.78;;
59105;SDS011;44891;50.204;8.132;2022-07-17T02:31:43;4.82;;;3.08;;
59105;SDS011;44891;50.204;8.132;2022-07-17T02:39:47;3.15;;;2.70;;
59105;SDS011;44891;50.204;8.132;2022-07-17T02:43:57;3.47;;;2.70;;
59105;SDS011;44891;50.204;8.132;2022-07-17T02:47:59;3.72;;;2.65;;
59105;SDS011;44891;50.204;8.132;2022-07-17T02:56:03;4.70;;;3.10;;
59105;SDS011;44891;50.204;8.132;2022-07-17T03:00:08;4.22;;;2.55;;
59105;SDS011;44891;50.204;8.132;2022-07-17T03:04:16;2.63;;;2.42;;
59105;SDS011;44891;50.204;8.132;2022-07-17T03:12:20;3.33;;;2.70;;
59105;SDS011;44891;50.204;8.132;2022-07-17T03:20:25;3.45;;;2.67;;
59105;SDS011;44891;50.204;8.132;2022-07-17T03:24:27;4.15;;;2.80;;
59105;SDS011;44891;50.204;8.132;2022-07-17T03:28:29;3.58;;;2.58;;
59105;SDS011;44891;50.204;8.132;2022-07-17T03:36:34;3.15;;;2.30;;
59105;SDS011;44891;50.204;8.132;2022-07-17T03:44:38;4.10;;;2.22;;
59105;SDS011;44891;50.204;8.132;2022-07-17T03:52:44;3.72;;;2.60;;
59105;SDS011;44891;50.204;8.132;2022-07-17T04:00:48;5.72;;;2.90;;
59105;SDS011;44891;50.204;8.132;2022-07-17T04:08:53;4.32;;;2.67;;
59105;SDS011;44891;50.204;8.132;2022-07-17T04:16:57;3.45;;;2.83;;
59105;SDS011;44891;50.204;8.132;2022-07-17T04:25:03;3.30;;;3.00;;
59105;SDS011;44891;50.204;8.132;2022-07-17T04:29:06;3.60;;;2.83;;
59105;SDS011;44891;50.204;8.132;2022-07-17T04:37:11;4.40;;;3.50;;
59105;SDS011;44891;50.204;8.132;2022-07-17T04:41:13;5.30;;;3.70;;
59105;SDS011;44891;50.204;8.132;2022-07-17T04:49:17;3.88;;;3.03;;
59105;SDS011;44891;50.204;8.132;2022-07-17T04:57:22;5.13;;;4.55;;
59105;SDS011;44891;50.204;8.132;2022-07-17T05:05:26;4.90;;;3.13;;
59105;SDS011;44891;50.204;8.132;2022-07-17T05:13:32;5.85;;;3.40;;
59105;SDS011;44891;50.204;8.132;2022-07-17T05:21:35;3.58;;;3.00;;
59105;SDS011;44891;50.204;8.132;2022-07-17T05:29:41;5.45;;;2.85;;
59105;SDS011;44891;50.204;8.132;2022-07-17T05:33:43;5.13;;;2.90;;
59105;SDS011;44891;50.204;8.132;2022-07-17T05:37:45;4.05;;;3.00;;
59105;SDS011;44891;50.204;8.132;2022-07-17T05:41:48;3.67;;;3.00;;
59105;SDS011;44891;50.204;8.132;2022-07-17T05:45:52;4.70;;;2.90;;
59105;SDS011;44891;50.204;8.132;2022-07-17T05:49:54;3.88;;;2.85;;
59105;SDS011;44891;50.204;8.132;2022-07-17T05:53:56;3.55;;;2.85;;
59105;SDS011;44891;50.204;8.132;2022-07-17T05:58:00;2.88;;;2.50;;
59105;SDS011;44891;50.204;8.132;2022-07-17T06:02:02;4.78;;;2.70;;
59105;SDS011;44891;50.204;8.132;2022-07-17T06:06:04;3.72;;;2.60;;
59105;SDS011;44891;50.204;8.132;2022-07-17T06:10:07;3.95;;;2.45;;
59105;SDS011;44891;50.204;8.132;2022-07-17T06:14:11;4.60;;;2.95;;
59105;SDS011;44891;50.204;8.132;2022-07-17T06:18:13;3.63;;;2.95;;
59105;SDS011;44891;50.204;8.132;2022-07-17T06:22:15;4.63;;;2.50;;
59105;SDS011;44891;50.204;8.132;2022-07-17T06:26:17;3.75;;;2.55;;
59105;SDS011;44891;50.204;8.132;2022-07-17T06:30:22;2.97;;;2.38;;
59105;SDS011;44891;50.204;8.132;2022-07-17T06:34:24;3.53;;;2.33;;
59105;SDS011;44891;50.204;8.132;2022-07-17T06:38:26;4.20;;;2.53;;
59105;SDS011;44891;50.204;8.132;2022-07-17T06:42:28;3.45;;;2.30;;
59105;SDS011;44891;50.204;8.132;2022-07-17T06:46:32;4.57;;;2.10;;
59105;SDS011;44891;50.204;8.132;2022-07-17T06:50:34;4.35;;;2.78;;
59105;SDS011;44891;50.204;8.132;2022-07-17T06:54:36;3.08;;;2.28;;
59105;SDS011;44891;50.204;8.132;2022-07-17T06:58:38;2.58;;;1.77;;
59105;SDS011;44891;50.204;8.132;2022-07-17T07:02:42;3.53;;;1.92;;
59105;SDS011;44891;50.204;8.132;2022-07-17T07:06:44;11.35;;;6.05;;
59105;SDS011;44891;50.204;8.132;2022-07-17T07:10:46;2.30;;;1.73;;
59105;SDS011;44891;50.204;8.132;2022-07-17T07:14:48;3.72;;;1.98;;
59105;SDS011;44891;50.204;8.132;2022-07-17T07:18:51;2.47;;;1.85;;
59105;SDS011;44891;50.204;8.132;2022-07-17T07:22:53;3.33;;;1.90;;
59105;SDS011;44891;50.204;8.132;2022-07-17T07:26:56;3.20;;;2.03;;
59105;SDS011;44891;50.204;8.132;2022-07-17T07:30:58;3.80;;;1.95;;
59105;SDS011;44891;50.204;8.132;2022-07-17T07:35:02;3.67;;;2.03;;
59105;SDS011;44891;50.204;8.132;2022-07-17T07:39:05;3.13;;;2.00;;
59105;SDS011;44891;50.204;8.132;2022-07-17T07:43:07;5.15;;;2.00;;
59105;SDS011;44891;50.204;8.132;2022-07-17T07:47:09;4.72;;;2.00;;
59105;SDS011;44891;50.204;8.132;2022-07-17T07:51:13;3.65;;;2.15;;
59105;SDS011;44891;50.204;8.132;2022-07-17T07:55:15;2.53;;;1.85;;
59105;SDS011;44891;50.204;8.132;2022-07-17T07:59:17;3.03;;;1.85;;
59105;SDS011;44891;50.204;8.132;2022-07-17T08:03:19;4.28;;;1.90;;
59105;SDS011;44891;50.204;8.132;2022-07-17T08:07:23;3.33;;;1.60;;
59105;SDS011;44891;50.204;8.132;2022-07-17T08:11:27;3.22;;;1.60;;
59105;SDS011;44891;50.204;8.132;2022-07-17T08:15:29;4.15;;;1.67;;
59105;SDS011;44891;50.204;8.132;2022-07-17T08:19:31;5.65;;;1.90;;
59105;SDS011;44891;50.204;8.132;2022-07-17T08:23:35;5.03;;;1.90;;
59105;SDS011;44891;50.204;8.132;2022-07-17T08:27:37;4.57;;;1.77;;
59105;SDS011;44891;50.204;8.132;2022-07-17T08:31:40;2.05;;;1.40;;
59105;SDS011;44891;50.204;8.132;2022-07-17T08:35:42;2.75;;;1.20;;
59105;SDS011;44891;50.204;8.132;2022-07-17T08:39:45;3.35;;;1.60;;
59105;SDS011;44891;50.204;8.132;2022-07-17T08:43:47;2.85;;;1.30;;
59105;SDS011;44891;50.204;8.132;2022-07-17T08:47:52;2.90;;;1.30;;
59105;SDS011;44891;50.204;8.132;2022-07-17T08:51:55;3.17;;;1.30;;
59105;SDS011;44891;50.204;8.132;2022-07-17T08:55:59;3.30;;;1.33;;
59105;SDS011;44891;50.204;8.132;2022-07-17T09:00:01;1.90;;;1.33;;
59105;SDS011;44891;50.204;8.132;2022-07-17T09:04:04;1.17;;;1.02;;
59105;SDS011;44891;50.204;8.132;2022-07-17T09:08:09;3.75;;;1.20;;
59105;SDS011;44891;50.204;8.132;2022-07-17T09:12:24;2.72;;;1.30;;
59105;SDS011;44891;50.204;8.132;2022-07-17T09:16:27;1.70;;;1.30;;
59105;SDS011;44891;50.204;8.132;2022-07-17T09:20:29;2.83;;;1.33;;
59105;SDS011;44891;50.204;8.132;2022-07-17T09:24:41;2.15;;;1.23;;
59105;SDS011;44891;50.204;8.132;2022-07-17T09:28:46;3.08;;;1.48;;
59105;SDS011;44891;50.204;8.132;2022-07-17T09:32:48;4.63;;;1.52;;
59105;SDS011;44891;50.204;8.132;2022-07-17T09:36:57;2.42;;;1.20;;
59105;SDS011;44891;50.204;8.132;2022-07-17T09:41:08;3.22;;;1.40;;
59105;SDS011;44891;50.204;8.132;2022-07-17T09:45:13;4.18;;;1.33;;
59105;SDS011;44891;50.204;8.132;2022-07-17T09:49:15;2.08;;;1.20;;
59105;SDS011;44891;50.204;8.132;2022-07-17T09:53:19;2.63;;;1.20;;
59105;SDS011;44891;50.204;8.132;2022-07-17T09:57:22;2.17;;;1.30;;
59105;SDS011;44891;50.204;8.132;2022-07-17T10:01:27;1.85;;;1.30;;
59105;SDS011;44891;50.204;8.132;2022-07-17T10:05:30;1.88;;;1.40;;
59105;SDS011;44891;50.204;8.132;2022-07-17T10:09:32;3.00;;;1.30;;
59105;SDS011;44891;50.204;8.132;2022-07-17T10:13:35;3.50;;;1.58;;
59105;SDS011;44891;50.204;8.132;2022-07-17T10:17:39;2.42;;;1.42;;
59105;SDS011;44891;50.204;8.132;2022-07-17T10:21:51;2.72;;;1.40;;
59105;SDS011;44891;50.204;8.132;2022-07-17T10:25:57;2.30;;;1.42;;
59105;SDS011;44891;50.204;8.132;2022-07-17T10:30:00;2.15;;;1.40;;
59105;SDS011;44891;50.204;8.132;2022-07-17T10:34:05;2.58;;;1.48;;
59105;SDS011;44891;50.204;8.132;2022-07-17T10:38:09;2.83;;;1.50;;
59105;SDS011;44891;50.204;8.132;2022-07-17T10:42:12;2.05;;;1.48;;
59105;SDS011;44891;50.204;8.132;2022-07-17T10:46:14;3.22;;;1.55;;
59105;SDS011;44891;50.204;8.132;2022-07-17T10:50:19;2.28;;;1.50;;
59105;SDS011;44891;50.204;8.132;2022-07-17T10:54:32;4.30;;;1.35;;
59105;SDS011;44891;50.204;8.132;2022-07-17T10:58:35;3.47;;;1.60;;
59105;SDS011;44891;50.204;8.132;2022-07-17T11:02:38;2.45;;;1.60;;
59105;SDS011;44891;50.204;8.132;2022-07-17T11:06:42;2.33;;;1.70;;
59105;SDS011;44891;50.204;8.132;2022-07-17T11:10:45;2.50;;;1.42;;
59105;SDS011;44891;50.204;8.132;2022-07-17T11:14:47;2.72;;;1.67;;
59105;SDS011;44891;50.204;8.132;2022-07-17T11:19:00;6.60;;;1.50;;
59105;SDS011;44891;50.204;8.132;2022-07-17T11:23:03;1.85;;;1.40;;
59105;SDS011;44891;50.204;8.132;2022-07-17T11:27:06;1.70;;;1.40;;
59105;SDS011;44891;50.204;8.132;2022-07-17T11:31:16;4.13;;;1.52;;
59105;SDS011;44891;50.204;8.132;2022-07-17T11:35:20;2.05;;;1.50;;
59105;SDS011;44891;50.204;8.132;2022-07-17T11:39:25;3.05;;;1.50;;
59105;SDS011;44891;50.204;8.132;2022-07-17T11:43:27;2.35;;;1.30;;
59105;SDS011;44891;50.204;8.132;2022-07-17T11:47:29;2.08;;;1.33;;
59105;SDS011;44891;50.204;8.132;2022-07-17T11:51:35;2.25;;;1.30;;
59105;SDS011;44891;50.204;8.132;2022-07-17T11:55:40;4.15;;;1.55;;
59105;SDS011;44891;50.204;8.132;2022-07-17T11:59:43;1.40;;;1.30;;
59105;SDS011;44891;50.204;8.132;2022-07-17T12:03:55;1.35;;;1.17;;
59105;SDS011;44891;50.204;8.132;2022-07-17T12:07:58;5.30;;;1.35;;
59105;SDS011;44891;50.204;8.132;2022-07-17T12:12:02;1.70;;;1.05;;
59105;SDS011;44891;50.204;8.132;2022-07-17T12:16:17;2.25;;;1.08;;
59105;SDS011;44891;50.204;8.132;2022-07-17T12:20:25;2.88;;;1.27;;
59105;SDS011;44891;50.204;8.132;2022-07-17T12:24:28;1.70;;;1.05;;
59105;SDS011;44891;50.204;8.132;2022-07-17T12:28:32;2.88;;;1.13;;
59105;SDS011;44891;50.204;8.132;2022-07-17T12:32:39;2.10;;;1.10;;
59105;SDS011;44891;50.204;8.132;2022-07-17T12:36:42;1.85;;;1.10;;
59105;SDS011;44891;50.204;8.132;2022-07-17T12:40:45;1.88;;;0.98;;
59105;SDS011;44891;50.204;8.132;2022-07-17T12:44:48;1.60;;;0.90;;
59105;SDS011;44891;50.204;8.132;2022-07-17T12:48:50;1.48;;;0.88;;
59105;SDS011;44891;50.204;8.132;2022-07-17T12:52:52;1.65;;;1.10;;
59105;SDS011;44891;50.204;8.132;2022-07-17T12:56:55;4.07;;;1.30;;
59105;SDS011;44891;50.204;8.132;2022-07-17T13:00:58;2.90;;;1.00;;
59105;SDS011;44891;50.204;8.132;2022-07-17T13:05:00;2.42;;;1.00;;
59105;SDS011;44891;50.204;8.132;2022-07-17T13:09:02;1.42;;;0.93;;
59105;SDS011;44891;50.204;8.132;2022-07-17T13:13:05;1.63;;;0.90;;
59105;SDS011;44891;50.204;8.132;2022-07-17T13:17:09;1.55;;;1.45;;
59105;SDS011;44891;50.204;8.132;2022-07-17T13:21:11;1.05;;;0.90;;
59105;SDS011;44891;50.204;8.132;2022-07-17T13:25:13;1.52;;;0.90;;
59105;SDS011;44891;50.204;8.132;2022-07-17T13:29:15;2.35;;;1.20;;
59105;SDS011;44891;50.204;8.132;2022-07-17T13:33:19;1.33;;;0.80;;
59105;SDS011;44891;50.204;8.132;2022-07-17T13:37:21;1.73;;;1.00;;
59105;SDS011;44891;50.204;8.132;2022-07-17T13:41:23;1.58;;;1.00;;
59105;SDS011;44891;50.204;8.132;2022-07-17T13:45:25;1.65;;;0.80;;
59105;SDS011;44891;50.204;8.132;2022-07-17T13:49:28;1.65;;;0.90;;
59105;SDS011;44891;50.204;8.132;2022-07-17T13:53:31;1.17;;;0.93;;
59105;SDS011;44891;50.204;8.132;2022-07-17T13:57:33;2.15;;;0.90;;
59105;SDS011;44891;50.204;8.132;2022-07-17T14:01:35;2.50;;;1.05;;
59105;SDS011;44891;50.204;8.132;2022-07-17T14:05:38;1.63;;;0.95;;
59105;SDS011;44891;50.204;8.132;2022-07-17T14:09:40;2.10;;;1.00;;
59105;SDS011;44891;50.204;8.132;2022-07-17T14:13:43;1.63;;;0.93;;
59105;SDS011;44891;50.204;8.132;2022-07-17T14:17:45;1.90;;;1.00;;
59105;SDS011;44891;50.204;8.132;2022-07-17T14:21:48;1.13;;;0.80;;
59105;SDS011;44891;50.204;8.132;2022-07-17T14:25:51;1.40;;;0.80;;
59105;SDS011;44891;50.204;8.132;2022-07-17T14:29:53;3.03;;;2.20;;
59105;SDS011;44891;50.204;8.132;2022-07-17T14:33:55;1.58;;;1.23;;
59105;SDS011;44891;50.204;8.132;2022-07-17T14:37:58;1.45;;;0.90;;
59105;SDS011;44891;50.204;8.132;2022-07-17T14:42:01;2.95;;;1.40;;
59105;SDS011;44891;50.204;8.132;2022-07-17T14:46:03;2.67;;;1.27;;
59105;SDS011;44891;50.204;8.132;2022-07-17T14:50:06;4.60;;;3.90;;
59105;SDS011;44891;50.204;8.132;2022-07-17T14:54:11;4.32;;;2.97;;
59105;SDS011;44891;50.204;8.132;2022-07-17T14:58:13;1.33;;;0.90;;
59105;SDS011;44891;50.204;8.132;2022-07-17T15:02:15;2.10;;;1.23;;
59105;SDS011;44891;50.204;8.132;2022-07-17T15:06:17;2.08;;;0.93;;
59105;SDS011;44891;50.204;8.132;2022-07-17T15:10:20;4.22;;;3.60;;
59105;SDS011;44891;50.204;8.132;2022-07-17T15:14:23;2.28;;;1.10;;
59105;SDS011;44891;50.204;8.132;2022-07-17T15:18:25;2.42;;;1.20;;
59105;SDS011;44891;50.204;8.132;2022-07-17T15:22:27;2.00;;;0.95;;
59105;SDS011;44891;50.204;8.132;2022-07-17T15:26:30;4.90;;;2.67;;
59105;SDS011;44891;50.204;8.132;2022-07-17T15:30:32;1.98;;;1.38;;
59105;SDS011;44891;50.204;8.132;2022-07-17T15:34:35;2.35;;;1.10;;
59105;SDS011;44891;50.204;8.132;2022-07-17T15:38:38;1.77;;;1.13;;
59105;SDS011;44891;50.204;8.132;2022-07-17T15:42:41;2.03;;;1.30;;
59105;SDS011;44891;50.204;8.132;2022-07-17T15:46:43;2.97;;;1.55;;
59105;SDS011;44891;50.204;8.132;2022-07-17T15:50:46;1.02;;;0.80;;
59105;SDS011;44891;50.204;8.132;2022-07-17T15:54:48;2.85;;;0.90;;
59105;SDS011;44891;50.204;8.132;2022-07-17T15:58:51;1.52;;;1.00;;
59105;SDS011;44891;50.204;8.132;2022-07-17T16:02:53;3.92;;;1.00;;
59105;SDS011;44891;50.204;8.132;2022-07-17T16:06:55;1.98;;;1.50;;
59105;SDS011;44891;50.204;8.132;2022-07-17T16:10:57;2.03;;;1.13;;
59105;SDS011;44891;50.204;8.132;2022-07-17T16:15:01;2.30;;;1.08;;
59105;SDS011;44891;50.204;8.132;2022-07-17T16:19:03;3.47;;;1.10;;
59105;SDS011;44891;50.204;8.132;2022-07-17T16:23:05;1.95;;;1.10;;
59105;SDS011;44891;50.204;8.132;2022-07-17T16:27:07;2.63;;;1.00;;
59105;SDS011;44891;50.204;8.132;2022-07-17T16:31:11;2.25;;;1.10;;
59105;SDS011;44891;50.204;8.132;2022-07-17T16:35:13;1.92;;;1.05;;
59105;SDS011;44891;50.204;8.132;2022-07-17T16:39:15;3.25;;;1.30;;
59105;SDS011;44891;50.204;8.132;2022-07-17T16:43:17;1.20;;;1.10;;
59105;SDS011;44891;50.204;8.132;2022-07-17T16:47:21;2.45;;;1.20;;
59105;SDS011;44891;50.204;8.132;2022-07-17T16:51:23;2.10;;;1.50;;
59105;SDS011;44891;50.204;8.132;2022-07-17T16:55:25;1.98;;;1.63;;
59105;SDS011;44891;50.204;8.132;2022-07-17T16:59:27;2.95;;;1.42;;
59105;SDS011;44891;50.204;8.132;2022-07-17T17:03:30;2.80;;;1.52;;
59105;SDS011;44891;50.204;8.132;2022-07-17T17:07:32;1.95;;;1.40;;
59105;SDS011;44891;50.204;8.132;2022-07-17T17:11:35;4.00;;;1.58;;
59105;SDS011;44891;50.204;8.132;2022-07-17T17:15:37;2.85;;;1.50;;
59105;SDS011;44891;50.204;8.132;2022-07-17T17:19:40;5.63;;;1.50;;
59105;SDS011;44891;50.204;8.132;2022-07-17T17:23:44;2.28;;;1.42;;
59105;SDS011;44891;50.204;8.132;2022-07-17T17:27:46;1.63;;;1.30;;
59105;SDS011;44891;50.204;8.132;2022-07-17T17:31:48;6.70;;;2.22;;
59105;SDS011;44891;50.204;8.132;2022-07-17T17:35:51;2.53;;;1.13;;
59105;SDS011;44891;50.204;8.132;2022-07-17T17:39:53;2.90;;;1.40;;
59105;SDS011;44891;50.204;8.132;2022-07-17T17:43:57;2.05;;;1.40;;
59105;SDS011;44891;50.204;8.132;2022-07-17T17:47:59;1.85;;;1.20;;
59105;SDS011;44891;50.204;8.132;2022-07-17T17:52:03;2.72;;;1.25;;
59105;SDS011;44891;50.204;8.132;2022-07-17T17:56:06;2.78;;;1.38;;
59105;SDS011;44891;50.204;8.132;2022-07-17T18:00:09;2.97;;;1.40;;
59105;SDS011;44891;50.204;8.132;2022-07-17T18:04:12;2.97;;;1.50;;
59105;SDS011;44891;50.204;8.132;2022-07-17T18:08:15;2.40;;;1.52;;
59105;SDS011;44891;50.204;8.132;2022-07-17T18:12:18;2.10;;;1.60;;
59105;SDS011;44891;50.204;8.132;2022-07-17T18:16:20;3.35;;;1.30;;
59105;SDS011;44891;50.204;8.132;2022-07-17T18:20:22;2.17;;;1.20;;
59105;SDS011;44891;50.204;8.132;2022-07-17T18:24:25;2.00;;;1.30;;
59105;SDS011;44891;50.204;8.132;2022-07-17T18:28:28;2.42;;;1.40;;
59105;SDS011;44891;50.204;8.132;2022-07-17T18:32:30;3.25;;;1.77;;
59105;SDS011;44891;50.204;8.132;2022-07-17T18:36:32;4.22;;;2.28;;
59105;SDS011;44891;50.204;8.132;2022-07-17T18:40:36;2.78;;;1.92;;
59105;SDS011;44891;50.204;8.132;2022-07-17T18:44:38;3.63;;;1.70;;
59105;SDS011;44891;50.204;8.132;2022-07-17T18:48:40;3.92;;;2.15;;
59105;SDS011;44891;50.204;8.132;2022-07-17T18:52:42;2.17;;;1.50;;
59105;SDS011;44891;50.204;8.132;2022-07-17T18:56:45;3.35;;;1.88;;
59105;SDS011;44891;50.204;8.132;2022-07-17T19:00:47;3.50;;;2.30;;
59105;SDS011;44891;50.204;8.132;2022-07-17T19:04:50;2.58;;;1.80;;
59105;SDS011;44891;50.204;8.132;2022-07-17T19:08:52;2.90;;;1.90;;
59105;SDS011;44891;50.204;8.132;2022-07-17T19:12:55;3.92;;;1.80;;
59105;SDS011;44891;50.204;8.132;2022-07-17T19:16:57;2.97;;;1.65;;
59105;SDS011;44891;50.204;8.132;2022-07-17T19:20:59;4.03;;;1.80;;
59105;SDS011;44891;50.204;8.132;2022-07-17T19:25:01;3.40;;;1.67;;
59105;SDS011;44891;50.204;8.132;2022-07-17T19:29:07;5.82;;;1.70;;
59105;SDS011;44891;50.204;8.132;2022-07-17T19:33:09;3.65;;;1.50;;
59105;SDS011;44891;50.204;8.132;2022-07-17T19:37:11;2.85;;;1.40;;
59105;SDS011;44891;50.204;8.132;2022-07-17T19:41:13;2.90;;;1.60;;
59105;SDS011;44891;50.204;8.132;2022-07-17T19:45:17;2.40;;;1.60;;
59105;SDS011;44891;50.204;8.132;2022-07-17T19:49:19;4.05;;;1.73;;
59105;SDS011;44891;50.204;8.132;2022-07-17T19:53:21;3.88;;;1.73;;
59105;SDS011;44891;50.204;8.132;2022-07-17T19:57:23;2.03;;;1.58;;
59105;SDS011;44891;50.204;8.132;2022-07-17T20:01:27;3.42;;;1.50;;
59105;SDS011;44891;50.204;8.132;2022-07-17T20:05:29;5.15;;;1.40;;
59105;SDS011;44891;50.204;8.132;2022-07-17T20:09:31;6.15;;;1.60;;
59105;SDS011;44891;50.204;8.132;2022-07-17T20:13:33;4.30;;;1.70;;
59105;SDS011;44891;50.204;8.132;2022-07-17T20:17:38;2.65;;;1.67;;
59105;SDS011;44891;50.204;8.132;2022-07-17T20:21:40;3.35;;;1.90;;
59105;SDS011;44891;50.204;8.132;2022-07-17T20:25:42;3.83;;;1.92;;
59105;SDS011;44891;50.204;8.132;2022-07-17T20:29:46;5.47;;;1.70;;
59105;SDS011;44891;50.204;8.132;2022-07-17T20:33:50;3.00;;;1.42;;
59105;SDS011;44891;50.204;8.132;2022-07-17T20:37:52;2.13;;;1.70;;
59105;SDS011;44891;50.204;8.132;2022-07-17T20:41:54;3.35;;;1.63;;
59105;SDS011;44891;50.204;8.132;2022-07-17T20:45:56;4.50;;;2.25;;
59105;SDS011;44891;50.204;8.132;2022-07-17T20:50:00;3.35;;;2.03;;
59105;SDS011;44891;50.204;8.132;2022-07-17T20:54:02;3.45;;;2.00;;
59105;SDS011;44891;50.204;8.132;2022-07-17T20:58:04;3.08;;;1.70;;
59105;SDS011;44891;50.204;8.132;2022-07-17T21:02:07;2.88;;;1.58;;
59105;SDS011;44891;50.204;8.132;2022-07-17T21:06:10;3.45;;;1.60;;
59105;SDS011;44891;50.204;8.132;2022-07-17T21:10:14;4.45;;;1.60;;
59105;SDS011;44891;50.204;8.132;2022-07-17T21:14:17;3.78;;;1.85;;
59105;SDS011;44891;50.204;8.132;2022-07-17T21:18:20;7.38;;;2.08;;
59105;SDS011;44891;50.204;8.132;2022-07-17T21:22:24;4.57;;;1.85;;
59105;SDS011;44891;50.204;8.132;2022-07-17T21:26:26;4.43;;;1.92;;
59105;SDS011;44891;50.204;8.132;2022-07-17T21:30:28;3.53;;;1.70;;
59105;SDS011;44891;50.204;8.132;2022-07-17T21:34:32;3.65;;;1.70;;
59105;SDS011;44891;50.204;8.132;2022-07-17T21:38:35;3.70;;;2.10;;
59105;SDS011;44891;50.204;8.132;2022-07-17T21:42:37;4.32;;;1.75;;
59105;SDS011;44891;50.204;8.132;2022-07-17T21:46:39;3.88;;;1.75;;
59105;SDS011;44891;50.204;8.132;2022-07-17T21:50:42;3.47;;;1.63;;
59105;SDS011;44891;50.204;8.132;2022-07-17T21:54:45;3.30;;;1.67;;
59105;SDS011;44891;50.204;8.132;2022-07-17T21:58:47;4.30;;;1.70;;
59105;SDS011;44891;50.204;8.132;2022-07-17T22:02:50;5.35;;;1.95;;
59105;SDS011;44891;50.204;8.132;2022-07-17T22:06:52;5.47;;;1.80;;
59105;SDS011;44891;50.204;8.132;2022-07-17T22:10:56;5.38;;;1.63;;
59105;SDS011;44891;50.204;8.132;2022-07-17T22:14:59;4.10;;;1.80;;
59105;SDS011;44891;50.204;8.132;2022-07-17T22:19:01;5.53;;;2.20;;
59105;SDS011;44891;50.204;8.132;2022-07-17T22:23:04;3.75;;;1.70;;
59105;SDS011;44891;50.204;8.132;2022-07-17T22:27:08;4.25;;;1.80;;
59105;SDS011;44891;50.204;8.132;2022-07-17T22:31:11;4.15;;;1.85;;
59105;SDS011;44891;50.204;8.132;2022-07-17T22:35:13;4.15;;;1.98;;
59105;SDS011;44891;50.204;8.132;2022-07-17T22:39:15;4.60;;;1.90;;
59105;SDS011;44891;50.204;8.132;2022-07-17T22:43:19;6.53;;;1.85;;
59105;SDS011;44891;50.204;8.132;2022-07-17T22:47:21;3.85;;;1.80;;
59105;SDS011;44891;50.204;8.132;2022-07-17T22:51:23;3.45;;;1.90;;
59105;SDS011;44891;50.204;8.132;2022-07-17T22:55:25;3.72;;;1.77;;
59105;SDS011;44891;50.204;8.132;2022-07-17T22:59:29;4.18;;;1.80;;
59105;SDS011;44891;50.204;8.132;2022-07-17T23:03:32;3.80;;;1.70;;
59105;SDS011;44891;50.204;8.132;2022-07-17T23:07:34;2.88;;;1.90;;
59105;SDS011;44891;50.204;8.132;2022-07-17T23:11:36;5.00;;;1.80;;
59105;SDS011;44891;50.204;8.132;2022-07-17T23:15:40;2.30;;;1.67;;
59105;SDS011;44891;50.204;8.132;2022-07-17T23:19:42;3.17;;;1.70;;
59105;SDS011;44891;50.204;8.132;2022-07-17T23:23:44;4.20;;;1.83;;
59105;SDS011;44891;50.204;8.132;2022-07-17T23:27:46;3.38;;;1.70;;
59105;SDS011;44891;50.204;8.132;2022-07-17T23:31:50;3.63;;;1.90;;
59105;SDS011;44891;50.204;8.132;2022-07-17T23:35:52;3.42;;;1.88;;
59105;SDS011;44891;50.204;8.132;2022-07-17T23:39:54;5.65;;;1.98;;
59105;SDS011;44891;50.204;8.132;2022-07-17T23:43:56;3.38;;;1.80;;
59105;SDS011;44891;50.204;8.132;2022-07-17T23:48:00;3.10;;;1.70;;
59105;SDS011;44891;50.204;8.132;2022-07-17T23:52:02;3.08;;;1.77;;
59105;SDS011;44891;50.204;8.132;2022-07-17T23:56:05;2.15;;;1.60;;
